sensor_id;sensor_type;location;lat;lon;timestamp;P1;durP1;ratioP1;P2;durP2;ratioP2
20287;SDS011;10303;51.960;8.372;2023-07-29T00:01:19;0.50;;;0.50;;
20287;SDS011;10303;51.960;8.372;2023-07-29T00:03:45;0.60;;;0.60;;
20287;SDS011;10303;51.960;8.372;2023-07-29T00:06:11;0.60;;;0.60;;
20287;SDS011;10303;51.960;8.372;2023-07-29T00:08:37;0.60;;;0.60;;
20287;SDS011;10303;51.960;8.372;2023-07-29T00:11:03;0.60;;;0.60;;
20287;SDS011;10303;51.960;8.372;2023-07-29T00:13:29;0.52;;;0.52;;
20287;SDS011;10303;51.960;8.372;2023-07-29T00:15:55;0.70;;;0.70;;
20287;SDS011;10303;51.960;8.372;2023-07-29T00:18:21;0.70;;;0.70;;
20287;SDS011;10303;51.960;8.372;2023-07-29T00:20:48;0.50;;;0.50;;
20287;SDS011;10303;51.960;8.372;2023-07-29T00:23:16;0.60;;;0.60;;
20287;SDS011;10303;51.960;8.372;2023-07-29T00:25:46;0.70;;;0.70;;
20287;SDS011;10303;51.960;8.372;2023-07-29T00:28:12;0.70;;;0.70;;
20287;SDS011;10303;51.960;8.372;2023-07-29T00:30:38;0.50;;;0.50;;
20287;SDS011;10303;51.960;8.372;2023-07-29T00:33:04;0.50;;;0.50;;
20287;SDS011;10303;51.960;8.372;2023-07-29T00:35:30;0.70;;;0.70;;
20287;SDS011;10303;51.960;8.372;2023-07-29T00:37:59;0.60;;;0.60;;
20287;SDS011;10303;51.960;8.372;2023-07-29T00:40:25;0.50;;;0.50;;
20287;SDS011;10303;51.960;8.372;2023-07-29T00:42:54;0.73;;;0.73;;
20287;SDS011;10303;51.960;8.372;2023-07-29T00:45:20;0.80;;;0.80;;
20287;SDS011;10303;51.960;8.372;2023-07-29T00:47:46;0.70;;;0.70;;
20287;SDS011;10303;51.960;8.372;2023-07-29T00:50:13;0.70;;;0.70;;
20287;SDS011;10303;51.960;8.372;2023-07-29T00:52:41;0.80;;;0.60;;
20287;SDS011;10303;51.960;8.372;2023-07-29T00:55:07;1.27;;;0.80;;
20287;SDS011;10303;51.960;8.372;2023-07-29T00:57:33;1.45;;;0.75;;
20287;SDS011;10303;51.960;8.372;2023-07-29T01:00:01;0.50;;;0.50;;
20287;SDS011;10303;51.960;8.372;2023-07-29T01:02:29;1.50;;;0.88;;
20287;SDS011;10303;51.960;8.372;2023-07-29T01:04:58;0.52;;;0.52;;
20287;SDS011;10303;51.960;8.372;2023-07-29T01:10:09;0.70;;;0.70;;
20287;SDS011;10303;51.960;8.372;2023-07-29T01:13:29;0.80;;;0.70;;
20287;SDS011;10303;51.960;8.372;2023-07-29T01:16:17;0.70;;;0.70;;
20287;SDS011;10303;51.960;8.372;2023-07-29T01:18:55;0.77;;;0.77;;
20287;SDS011;10303;51.960;8.372;2023-07-29T01:21:30;0.60;;;0.60;;
20287;SDS011;10303;51.960;8.372;2023-07-29T01:24:00;0.82;;;0.82;;
20287;SDS011;10303;51.960;8.372;2023-07-29T01:26:26;0.60;;;0.60;;
20287;SDS011;10303;51.960;8.372;2023-07-29T01:28:55;1.17;;;1.08;;
20287;SDS011;10303;51.960;8.372;2023-07-29T01:33:57;0.68;;;0.68;;
20287;SDS011;10303;51.960;8.372;2023-07-29T01:36:32;0.60;;;0.60;;
20287;SDS011;10303;51.960;8.372;2023-07-29T01:39:05;0.80;;;0.80;;
20287;SDS011;10303;51.960;8.372;2023-07-29T01:41:31;0.60;;;0.60;;
20287;SDS011;10303;51.960;8.372;2023-07-29T01:43:58;0.70;;;0.70;;
20287;SDS011;10303;51.960;8.372;2023-07-29T01:46:25;1.13;;;0.75;;
20287;SDS011;10303;51.960;8.372;2023-07-29T01:48:51;2.92;;;0.93;;
20287;SDS011;10303;51.960;8.372;2023-07-29T01:51:17;1.13;;;0.90;;
20287;SDS011;10303;51.960;8.372;2023-07-29T01:53:43;0.80;;;0.80;;
20287;SDS011;10303;51.960;8.372;2023-07-29T01:56:09;0.63;;;0.60;;
20287;SDS011;10303;51.960;8.372;2023-07-29T01:58:39;0.75;;;0.75;;
20287;SDS011;10303;51.960;8.372;2023-07-29T02:01:05;0.70;;;0.70;;
20287;SDS011;10303;51.960;8.372;2023-07-29T02:03:31;0.60;;;0.60;;
20287;SDS011;10303;51.960;8.372;2023-07-29T02:05:58;0.70;;;0.70;;
20287;SDS011;10303;51.960;8.372;2023-07-29T02:08:24;2.05;;;1.00;;
20287;SDS011;10303;51.960;8.372;2023-07-29T02:10:50;0.98;;;0.98;;
20287;SDS011;10303;51.960;8.372;2023-07-29T02:13:16;1.00;;;0.90;;
20287;SDS011;10303;51.960;8.372;2023-07-29T02:15:42;0.75;;;0.75;;
20287;SDS011;10303;51.960;8.372;2023-07-29T02:18:08;1.80;;;1.23;;
20287;SDS011;10303;51.960;8.372;2023-07-29T02:20:34;0.80;;;0.80;;
20287;SDS011;10303;51.960;8.372;2023-07-29T02:23:00;0.73;;;0.73;;
20287;SDS011;10303;51.960;8.372;2023-07-29T02:25:27;0.73;;;0.73;;
20287;SDS011;10303;51.960;8.372;2023-07-29T02:27:53;0.82;;;0.82;;
20287;SDS011;10303;51.960;8.372;2023-07-29T02:30:20;0.88;;;0.88;;
20287;SDS011;10303;51.960;8.372;2023-07-29T02:32:46;0.95;;;0.95;;
20287;SDS011;10303;51.960;8.372;2023-07-29T02:35:12;2.90;;;0.95;;
20287;SDS011;10303;51.960;8.372;2023-07-29T02:37:38;0.90;;;0.90;;
20287;SDS011;10303;51.960;8.372;2023-07-29T02:40:04;0.80;;;0.80;;
20287;SDS011;10303;51.960;8.372;2023-07-29T02:42:31;1.13;;;0.88;;
20287;SDS011;10303;51.960;8.372;2023-07-29T02:44:57;0.90;;;0.90;;
20287;SDS011;10303;51.960;8.372;2023-07-29T02:47:24;1.13;;;1.02;;
20287;SDS011;10303;51.960;8.372;2023-07-29T02:49:50;1.00;;;0.90;;
20287;SDS011;10303;51.960;8.372;2023-07-29T02:52:16;0.90;;;0.90;;
20287;SDS011;10303;51.960;8.372;2023-07-29T02:54:42;1.10;;;1.00;;
20287;SDS011;10303;51.960;8.372;2023-07-29T02:57:08;0.70;;;0.70;;
20287;SDS011;10303;51.960;8.372;2023-07-29T02:59:34;0.98;;;0.98;;
20287;SDS011;10303;51.960;8.372;2023-07-29T03:02:00;0.80;;;0.80;;
20287;SDS011;10303;51.960;8.372;2023-07-29T03:04:26;1.08;;;0.90;;
20287;SDS011;10303;51.960;8.372;2023-07-29T03:06:52;0.75;;;0.75;;
20287;SDS011;10303;51.960;8.372;2023-07-29T03:09:18;0.75;;;0.75;;
20287;SDS011;10303;51.960;8.372;2023-07-29T03:11:44;0.80;;;0.80;;
20287;SDS011;10303;51.960;8.372;2023-07-29T03:14:11;0.63;;;0.63;;
20287;SDS011;10303;51.960;8.372;2023-07-29T03:16:38;0.90;;;0.90;;
20287;SDS011;10303;51.960;8.372;2023-07-29T03:19:03;0.95;;;0.95;;
20287;SDS011;10303;51.960;8.372;2023-07-29T03:21:31;0.70;;;0.70;;
20287;SDS011;10303;51.960;8.372;2023-07-29T03:23:58;0.65;;;0.60;;
20287;SDS011;10303;51.960;8.372;2023-07-29T03:26:24;0.80;;;0.80;;
20287;SDS011;10303;51.960;8.372;2023-07-29T03:28:50;0.80;;;0.80;;
20287;SDS011;10303;51.960;8.372;2023-07-29T03:31:16;0.70;;;0.70;;
20287;SDS011;10303;51.960;8.372;2023-07-29T03:33:43;0.93;;;0.93;;
20287;SDS011;10303;51.960;8.372;2023-07-29T03:36:09;0.73;;;0.73;;
20287;SDS011;10303;51.960;8.372;2023-07-29T03:38:35;2.40;;;1.30;;
20287;SDS011;10303;51.960;8.372;2023-07-29T03:41:05;0.70;;;0.70;;
20287;SDS011;10303;51.960;8.372;2023-07-29T03:43:34;0.93;;;0.93;;
20287;SDS011;10303;51.960;8.372;2023-07-29T03:46:01;0.70;;;0.70;;
20287;SDS011;10303;51.960;8.372;2023-07-29T03:48:27;1.58;;;1.17;;
20287;SDS011;10303;51.960;8.372;2023-07-29T03:50:54;1.00;;;0.82;;
20287;SDS011;10303;51.960;8.372;2023-07-29T03:53:19;0.70;;;0.70;;
20287;SDS011;10303;51.960;8.372;2023-07-29T03:55:45;0.68;;;0.68;;
20287;SDS011;10303;51.960;8.372;2023-07-29T03:58:12;1.10;;;1.00;;
20287;SDS011;10303;51.960;8.372;2023-07-29T04:00:38;0.85;;;0.85;;
20287;SDS011;10303;51.960;8.372;2023-07-29T04:03:04;0.80;;;0.80;;
20287;SDS011;10303;51.960;8.372;2023-07-29T04:05:32;0.80;;;0.80;;
20287;SDS011;10303;51.960;8.372;2023-07-29T04:07:58;0.60;;;0.60;;
20287;SDS011;10303;51.960;8.372;2023-07-29T04:10:24;1.08;;;1.02;;
20287;SDS011;10303;51.960;8.372;2023-07-29T04:12:50;0.80;;;0.80;;
20287;SDS011;10303;51.960;8.372;2023-07-29T04:15:16;1.08;;;0.98;;
20287;SDS011;10303;51.960;8.372;2023-07-29T04:17:42;0.90;;;0.90;;
20287;SDS011;10303;51.960;8.372;2023-07-29T04:20:09;0.65;;;0.65;;
20287;SDS011;10303;51.960;8.372;2023-07-29T04:22:36;1.00;;;1.00;;
20287;SDS011;10303;51.960;8.372;2023-07-29T04:25:02;0.77;;;0.77;;
20287;SDS011;10303;51.960;8.372;2023-07-29T04:27:30;0.90;;;0.90;;
20287;SDS011;10303;51.960;8.372;2023-07-29T04:29:56;0.70;;;0.70;;
20287;SDS011;10303;51.960;8.372;2023-07-29T04:32:22;0.80;;;0.80;;
20287;SDS011;10303;51.960;8.372;2023-07-29T04:34:48;0.80;;;0.80;;
20287;SDS011;10303;51.960;8.372;2023-07-29T04:37:14;1.30;;;1.20;;
20287;SDS011;10303;51.960;8.372;2023-07-29T04:39:40;1.00;;;1.00;;
20287;SDS011;10303;51.960;8.372;2023-07-29T04:42:06;0.90;;;0.90;;
20287;SDS011;10303;51.960;8.372;2023-07-29T04:44:33;1.02;;;0.93;;
20287;SDS011;10303;51.960;8.372;2023-07-29T04:47:01;0.68;;;0.68;;
20287;SDS011;10303;51.960;8.372;2023-07-29T04:49:28;1.35;;;0.70;;
20287;SDS011;10303;51.960;8.372;2023-07-29T04:51:53;0.85;;;0.85;;
20287;SDS011;10303;51.960;8.372;2023-07-29T04:54:19;0.70;;;0.70;;
20287;SDS011;10303;51.960;8.372;2023-07-29T04:56:46;0.85;;;0.85;;
20287;SDS011;10303;51.960;8.372;2023-07-29T04:59:12;0.90;;;0.90;;
20287;SDS011;10303;51.960;8.372;2023-07-29T05:01:38;0.75;;;0.75;;
20287;SDS011;10303;51.960;8.372;2023-07-29T05:04:08;3.42;;;0.90;;
20287;SDS011;10303;51.960;8.372;2023-07-29T05:06:35;0.73;;;0.73;;
20287;SDS011;10303;51.960;8.372;2023-07-29T05:09:15;0.90;;;0.90;;
20287;SDS011;10303;51.960;8.372;2023-07-29T05:11:44;1.08;;;1.05;;
20287;SDS011;10303;51.960;8.372;2023-07-29T05:14:16;7.20;;;1.60;;
20287;SDS011;10303;51.960;8.372;2023-07-29T05:16:43;0.80;;;0.80;;
20287;SDS011;10303;51.960;8.372;2023-07-29T05:19:10;1.70;;;1.00;;
20287;SDS011;10303;51.960;8.372;2023-07-29T05:21:38;1.45;;;1.10;;
20287;SDS011;10303;51.960;8.372;2023-07-29T05:24:05;1.63;;;1.02;;
20287;SDS011;10303;51.960;8.372;2023-07-29T05:26:31;1.48;;;1.10;;
20287;SDS011;10303;51.960;8.372;2023-07-29T05:28:57;1.25;;;0.93;;
20287;SDS011;10303;51.960;8.372;2023-07-29T05:31:23;0.98;;;0.98;;
20287;SDS011;10303;51.960;8.372;2023-07-29T05:33:50;0.90;;;0.90;;
20287;SDS011;10303;51.960;8.372;2023-07-29T05:36:17;1.23;;;1.13;;
20287;SDS011;10303;51.960;8.372;2023-07-29T05:38:43;0.63;;;0.60;;
20287;SDS011;10303;51.960;8.372;2023-07-29T05:41:09;0.90;;;0.90;;
20287;SDS011;10303;51.960;8.372;2023-07-29T05:43:36;0.90;;;0.90;;
20287;SDS011;10303;51.960;8.372;2023-07-29T05:46:03;1.00;;;1.00;;
20287;SDS011;10303;51.960;8.372;2023-07-29T05:48:29;0.85;;;0.85;;
20287;SDS011;10303;51.960;8.372;2023-07-29T05:50:55;1.30;;;1.20;;
20287;SDS011;10303;51.960;8.372;2023-07-29T05:53:22;1.10;;;1.00;;
20287;SDS011;10303;51.960;8.372;2023-07-29T05:55:48;1.25;;;0.90;;
20287;SDS011;10303;51.960;8.372;2023-07-29T05:58:15;0.80;;;0.80;;
20287;SDS011;10303;51.960;8.372;2023-07-29T06:00:41;1.40;;;1.17;;
20287;SDS011;10303;51.960;8.372;2023-07-29T06:03:07;1.20;;;1.10;;
20287;SDS011;10303;51.960;8.372;2023-07-29T06:05:33;3.65;;;1.00;;
20287;SDS011;10303;51.960;8.372;2023-07-29T06:07:59;1.20;;;1.10;;
20287;SDS011;10303;51.960;8.372;2023-07-29T06:10:25;1.15;;;1.05;;
20287;SDS011;10303;51.960;8.372;2023-07-29T06:12:51;0.90;;;0.90;;
20287;SDS011;10303;51.960;8.372;2023-07-29T06:15:17;1.25;;;1.10;;
20287;SDS011;10303;51.960;8.372;2023-07-29T06:17:47;1.20;;;1.10;;
20287;SDS011;10303;51.960;8.372;2023-07-29T06:20:13;1.63;;;1.52;;
20287;SDS011;10303;51.960;8.372;2023-07-29T06:22:39;1.15;;;1.15;;
20287;SDS011;10303;51.960;8.372;2023-07-29T06:25:08;1.10;;;1.00;;
20287;SDS011;10303;51.960;8.372;2023-07-29T06:27:34;1.40;;;1.30;;
20287;SDS011;10303;51.960;8.372;2023-07-29T06:30:02;1.02;;;1.02;;
20287;SDS011;10303;51.960;8.372;2023-07-29T06:32:29;0.93;;;0.93;;
20287;SDS011;10303;51.960;8.372;2023-07-29T06:34:57;0.93;;;0.93;;
20287;SDS011;10303;51.960;8.372;2023-07-29T06:37:23;1.10;;;1.00;;
20287;SDS011;10303;51.960;8.372;2023-07-29T06:39:52;1.20;;;1.10;;
20287;SDS011;10303;51.960;8.372;2023-07-29T06:42:23;1.30;;;1.20;;
20287;SDS011;10303;51.960;8.372;2023-07-29T06:44:49;1.55;;;1.45;;
20287;SDS011;10303;51.960;8.372;2023-07-29T06:47:15;1.60;;;1.50;;
20287;SDS011;10303;51.960;8.372;2023-07-29T06:49:41;1.60;;;1.50;;
20287;SDS011;10303;51.960;8.372;2023-07-29T06:52:07;1.48;;;1.38;;
20287;SDS011;10303;51.960;8.372;2023-07-29T06:54:33;2.92;;;1.98;;
20287;SDS011;10303;51.960;8.372;2023-07-29T06:56:59;2.45;;;2.30;;
20287;SDS011;10303;51.960;8.372;2023-07-29T06:59:26;3.25;;;3.05;;
20287;SDS011;10303;51.960;8.372;2023-07-29T07:01:52;9.32;;;3.75;;
20287;SDS011;10303;51.960;8.372;2023-07-29T07:04:18;6.20;;;4.22;;
20287;SDS011;10303;51.960;8.372;2023-07-29T07:06:44;6.53;;;5.35;;
20287;SDS011;10303;51.960;8.372;2023-07-29T07:09:10;6.95;;;5.97;;
20287;SDS011;10303;51.960;8.372;2023-07-29T07:11:36;6.43;;;5.80;;
20287;SDS011;10303;51.960;8.372;2023-07-29T07:14:02;6.07;;;5.47;;
20287;SDS011;10303;51.960;8.372;2023-07-29T07:16:28;8.20;;;5.97;;
20287;SDS011;10303;51.960;8.372;2023-07-29T07:18:57;5.30;;;4.72;;
20287;SDS011;10303;51.960;8.372;2023-07-29T07:21:23;5.88;;;4.72;;
20287;SDS011;10303;51.960;8.372;2023-07-29T07:23:49;4.78;;;4.47;;
20287;SDS011;10303;51.960;8.372;2023-07-29T07:26:15;4.72;;;4.32;;
20287;SDS011;10303;51.960;8.372;2023-07-29T07:28:42;4.75;;;4.35;;
20287;SDS011;10303;51.960;8.372;2023-07-29T07:31:08;4.40;;;4.00;;
20287;SDS011;10303;51.960;8.372;2023-07-29T07:33:34;4.50;;;4.10;;
20287;SDS011;10303;51.960;8.372;2023-07-29T07:36:00;4.22;;;3.85;;
20287;SDS011;10303;51.960;8.372;2023-07-29T07:38:26;3.88;;;3.63;;
20287;SDS011;10303;51.960;8.372;2023-07-29T07:40:53;3.67;;;3.03;;
20287;SDS011;10303;51.960;8.372;2023-07-29T07:43:21;4.03;;;3.63;;
20287;SDS011;10303;51.960;8.372;2023-07-29T07:45:47;3.10;;;2.90;;
20287;SDS011;10303;51.960;8.372;2023-07-29T07:48:13;3.35;;;3.15;;
20287;SDS011;10303;51.960;8.372;2023-07-29T07:50:41;3.72;;;3.40;;
20287;SDS011;10303;51.960;8.372;2023-07-29T07:53:08;3.53;;;3.28;;
20287;SDS011;10303;51.960;8.372;2023-07-29T07:55:34;3.20;;;3.00;;
20287;SDS011;10303;51.960;8.372;2023-07-29T07:58:00;2.80;;;2.70;;
20287;SDS011;10303;51.960;8.372;2023-07-29T08:00:26;4.03;;;3.45;;
20287;SDS011;10303;51.960;8.372;2023-07-29T08:02:52;3.67;;;3.38;;
20287;SDS011;10303;51.960;8.372;2023-07-29T08:05:18;3.65;;;3.05;;
20287;SDS011;10303;51.960;8.372;2023-07-29T08:07:44;3.15;;;2.95;;
20287;SDS011;10303;51.960;8.372;2023-07-29T08:10:10;3.17;;;2.97;;
20287;SDS011;10303;51.960;8.372;2023-07-29T08:12:36;3.72;;;2.70;;
20287;SDS011;10303;51.960;8.372;2023-07-29T08:15:02;2.40;;;2.30;;
20287;SDS011;10303;51.960;8.372;2023-07-29T08:17:29;2.80;;;2.60;;
20287;SDS011;10303;51.960;8.372;2023-07-29T08:19:55;3.00;;;2.80;;
20287;SDS011;10303;51.960;8.372;2023-07-29T08:22:21;3.67;;;3.42;;
20287;SDS011;10303;51.960;8.372;2023-07-29T08:24:47;4.10;;;2.53;;
20287;SDS011;10303;51.960;8.372;2023-07-29T08:27:13;3.08;;;2.88;;
20287;SDS011;10303;51.960;8.372;2023-07-29T08:29:39;1.73;;;1.63;;
20287;SDS011;10303;51.960;8.372;2023-07-29T08:32:05;1.73;;;1.63;;
20287;SDS011;10303;51.960;8.372;2023-07-29T08:34:31;1.55;;;1.45;;
20287;SDS011;10303;51.960;8.372;2023-07-29T08:36:57;2.75;;;1.40;;
20287;SDS011;10303;51.960;8.372;2023-07-29T08:39:24;2.22;;;1.70;;
20287;SDS011;10303;51.960;8.372;2023-07-29T08:44:30;1.23;;;1.13;;
20287;SDS011;10303;51.960;8.372;2023-07-29T08:47:02;2.35;;;1.58;;
20287;SDS011;10303;51.960;8.372;2023-07-29T08:49:28;3.42;;;1.30;;
20287;SDS011;10303;51.960;8.372;2023-07-29T08:51:57;1.40;;;1.30;;
20287;SDS011;10303;51.960;8.372;2023-07-29T08:54:25;1.40;;;1.30;;
20287;SDS011;10303;51.960;8.372;2023-07-29T08:56:51;1.25;;;1.17;;
20287;SDS011;10303;51.960;8.372;2023-07-29T08:59:19;2.40;;;1.65;;
20287;SDS011;10303;51.960;8.372;2023-07-29T09:01:46;1.30;;;1.20;;
20287;SDS011;10303;51.960;8.372;2023-07-29T09:04:13;0.85;;;0.77;;
20287;SDS011;10303;51.960;8.372;2023-07-29T09:06:39;0.50;;;0.50;;
20287;SDS011;10303;51.960;8.372;2023-07-29T09:09:08;0.70;;;0.70;;
20287;SDS011;10303;51.960;8.372;2023-07-29T09:11:34;0.60;;;0.60;;
20287;SDS011;10303;51.960;8.372;2023-07-29T09:14:01;0.93;;;0.88;;
20287;SDS011;10303;51.960;8.372;2023-07-29T09:16:27;0.75;;;0.75;;
20287;SDS011;10303;51.960;8.372;2023-07-29T09:18:54;2.20;;;1.00;;
20287;SDS011;10303;51.960;8.372;2023-07-29T09:21:23;0.82;;;0.82;;
20287;SDS011;10303;51.960;8.372;2023-07-29T09:23:51;0.70;;;0.70;;
20287;SDS011;10303;51.960;8.372;2023-07-29T09:26:27;1.02;;;0.93;;
20287;SDS011;10303;51.960;8.372;2023-07-29T09:28:57;0.90;;;0.90;;
20287;SDS011;10303;51.960;8.372;2023-07-29T09:31:25;0.75;;;0.75;;
20287;SDS011;10303;51.960;8.372;2023-07-29T09:34:01;0.82;;;0.80;;
20287;SDS011;10303;51.960;8.372;2023-07-29T09:36:33;0.63;;;0.63;;
20287;SDS011;10303;51.960;8.372;2023-07-29T09:38:59;0.70;;;0.70;;
20287;SDS011;10303;51.960;8.372;2023-07-29T09:41:26;0.60;;;0.60;;
20287;SDS011;10303;51.960;8.372;2023-07-29T09:43:59;0.70;;;0.70;;
20287;SDS011;10303;51.960;8.372;2023-07-29T09:46:35;0.47;;;0.47;;
20287;SDS011;10303;51.960;8.372;2023-07-29T09:49:03;0.45;;;0.45;;
20287;SDS011;10303;51.960;8.372;2023-07-29T09:51:31;0.82;;;0.60;;
20287;SDS011;10303;51.960;8.372;2023-07-29T09:53:57;0.60;;;0.60;;
20287;SDS011;10303;51.960;8.372;2023-07-29T09:56:27;0.40;;;0.40;;
20287;SDS011;10303;51.960;8.372;2023-07-29T09:58:58;0.52;;;0.50;;
20287;SDS011;10303;51.960;8.372;2023-07-29T10:01:24;0.40;;;0.40;;
20287;SDS011;10303;51.960;8.372;2023-07-29T10:03:52;0.60;;;0.60;;
20287;SDS011;10303;51.960;8.372;2023-07-29T10:06:21;0.50;;;0.50;;
20287;SDS011;10303;51.960;8.372;2023-07-29T10:08:49;0.63;;;0.63;;
20287;SDS011;10303;51.960;8.372;2023-07-29T10:11:17;1.63;;;0.52;;
20287;SDS011;10303;51.960;8.372;2023-07-29T10:13:46;0.43;;;0.43;;
20287;SDS011;10303;51.960;8.372;2023-07-29T10:16:13;0.45;;;0.45;;
20287;SDS011;10303;51.960;8.372;2023-07-29T10:18:40;0.60;;;0.60;;
20287;SDS011;10303;51.960;8.372;2023-07-29T10:21:07;0.47;;;0.47;;
20287;SDS011;10303;51.960;8.372;2023-07-29T10:23:43;0.30;;;0.30;;
20287;SDS011;10303;51.960;8.372;2023-07-29T10:26:19;0.47;;;0.47;;
20287;SDS011;10303;51.960;8.372;2023-07-29T10:28:47;0.40;;;0.40;;
20287;SDS011;10303;51.960;8.372;2023-07-29T10:31:17;0.50;;;0.50;;
20287;SDS011;10303;51.960;8.372;2023-07-29T10:33:44;0.30;;;0.30;;
20287;SDS011;10303;51.960;8.372;2023-07-29T10:36:10;0.40;;;0.40;;
20287;SDS011;10303;51.960;8.372;2023-07-29T10:38:39;1.70;;;0.40;;
20287;SDS011;10303;51.960;8.372;2023-07-29T10:41:07;0.43;;;0.40;;
20287;SDS011;10303;51.960;8.372;2023-07-29T10:43:34;0.40;;;0.40;;
20287;SDS011;10303;51.960;8.372;2023-07-29T10:46:15;0.30;;;0.30;;
20287;SDS011;10303;51.960;8.372;2023-07-29T10:48:56;0.47;;;0.47;;
20287;SDS011;10303;51.960;8.372;2023-07-29T10:51:26;0.32;;;0.32;;
20287;SDS011;10303;51.960;8.372;2023-07-29T10:54:02;0.50;;;0.50;;
20287;SDS011;10303;51.960;8.372;2023-07-29T10:56:46;0.32;;;0.32;;
20287;SDS011;10303;51.960;8.372;2023-07-29T11:02:17;2.15;;;1.10;;
20287;SDS011;10303;51.960;8.372;2023-07-29T11:04:49;0.40;;;0.40;;
20287;SDS011;10303;51.960;8.372;2023-07-29T11:15:07;0.70;;;0.70;;
20287;SDS011;10303;51.960;8.372;2023-07-29T11:17:47;1.15;;;0.80;;
20287;SDS011;10303;51.960;8.372;2023-07-29T11:20:26;0.65;;;0.65;;
20287;SDS011;10303;51.960;8.372;2023-07-29T11:22:59;1.13;;;0.70;;
20287;SDS011;10303;51.960;8.372;2023-07-29T11:25:28;1.00;;;0.75;;
20287;SDS011;10303;51.960;8.372;2023-07-29T11:27:57;0.60;;;0.60;;
20287;SDS011;10303;51.960;8.372;2023-07-29T11:30:25;0.70;;;0.70;;
20287;SDS011;10303;51.960;8.372;2023-07-29T11:32:58;0.60;;;0.60;;
20287;SDS011;10303;51.960;8.372;2023-07-29T11:35:25;0.80;;;0.80;;
20287;SDS011;10303;51.960;8.372;2023-07-29T11:37:52;0.80;;;0.80;;
20287;SDS011;10303;51.960;8.372;2023-07-29T11:40:22;0.60;;;0.60;;
20287;SDS011;10303;51.960;8.372;2023-07-29T11:42:50;0.80;;;0.80;;
20287;SDS011;10303;51.960;8.372;2023-07-29T11:45:18;0.70;;;0.70;;
20287;SDS011;10303;51.960;8.372;2023-07-29T11:47:46;0.60;;;0.60;;
20287;SDS011;10303;51.960;8.372;2023-07-29T11:50:14;0.85;;;0.85;;
20287;SDS011;10303;51.960;8.372;2023-07-29T11:52:41;1.00;;;1.00;;
20287;SDS011;10303;51.960;8.372;2023-07-29T11:55:11;2.15;;;1.20;;
20287;SDS011;10303;51.960;8.372;2023-07-29T11:57:39;0.98;;;0.98;;
20287;SDS011;10303;51.960;8.372;2023-07-29T12:00:08;1.02;;;1.02;;
20287;SDS011;10303;51.960;8.372;2023-07-29T12:02:37;1.40;;;1.30;;
20287;SDS011;10303;51.960;8.372;2023-07-29T12:05:07;1.50;;;1.00;;
20287;SDS011;10303;51.960;8.372;2023-07-29T12:07:35;1.10;;;1.10;;
20287;SDS011;10303;51.960;8.372;2023-07-29T12:10:04;2.25;;;1.20;;
20287;SDS011;10303;51.960;8.372;2023-07-29T12:12:31;1.33;;;1.10;;
20287;SDS011;10303;51.960;8.372;2023-07-29T12:14:58;0.90;;;0.90;;
20287;SDS011;10303;51.960;8.372;2023-07-29T12:17:24;0.90;;;0.90;;
20287;SDS011;10303;51.960;8.372;2023-07-29T12:19:53;1.52;;;1.27;;
20287;SDS011;10303;51.960;8.372;2023-07-29T12:22:20;0.95;;;0.90;;
20287;SDS011;10303;51.960;8.372;2023-07-29T12:24:51;1.10;;;1.10;;
20287;SDS011;10303;51.960;8.372;2023-07-29T12:27:19;0.93;;;0.93;;
20287;SDS011;10303;51.960;8.372;2023-07-29T12:29:48;0.80;;;0.80;;
20287;SDS011;10303;51.960;8.372;2023-07-29T12:32:17;0.77;;;0.77;;
20287;SDS011;10303;51.960;8.372;2023-07-29T12:34:44;7.85;;;1.13;;
20287;SDS011;10303;51.960;8.372;2023-07-29T12:37:10;2.25;;;0.90;;
20287;SDS011;10303;51.960;8.372;2023-07-29T12:39:40;1.02;;;0.82;;
20287;SDS011;10303;51.960;8.372;2023-07-29T12:42:07;0.80;;;0.80;;
20287;SDS011;10303;51.960;8.372;2023-07-29T12:44:34;0.80;;;0.80;;
20287;SDS011;10303;51.960;8.372;2023-07-29T12:47:03;0.55;;;0.55;;
20287;SDS011;10303;51.960;8.372;2023-07-29T12:49:31;1.00;;;0.70;;
20287;SDS011;10303;51.960;8.372;2023-07-29T12:51:57;1.05;;;0.77;;
20287;SDS011;10303;51.960;8.372;2023-07-29T12:54:25;2.00;;;0.63;;
20287;SDS011;10303;51.960;8.372;2023-07-29T12:56:51;1.15;;;0.60;;
20287;SDS011;10303;51.960;8.372;2023-07-29T12:59:17;0.90;;;0.70;;
20287;SDS011;10303;51.960;8.372;2023-07-29T13:01:43;0.63;;;0.63;;
20287;SDS011;10303;51.960;8.372;2023-07-29T13:04:10;0.77;;;0.77;;
20287;SDS011;10303;51.960;8.372;2023-07-29T13:06:36;1.13;;;0.50;;
20287;SDS011;10303;51.960;8.372;2023-07-29T13:09:02;0.50;;;0.50;;
20287;SDS011;10303;51.960;8.372;2023-07-29T13:11:28;0.50;;;0.50;;
20287;SDS011;10303;51.960;8.372;2023-07-29T13:13:55;0.50;;;0.50;;
20287;SDS011;10303;51.960;8.372;2023-07-29T13:16:21;1.38;;;0.60;;
20287;SDS011;10303;51.960;8.372;2023-07-29T13:18:47;1.50;;;1.02;;
20287;SDS011;10303;51.960;8.372;2023-07-29T13:21:13;0.70;;;0.70;;
20287;SDS011;10303;51.960;8.372;2023-07-29T13:23:39;0.80;;;0.80;;
20287;SDS011;10303;51.960;8.372;2023-07-29T13:26:05;0.52;;;0.52;;
20287;SDS011;10303;51.960;8.372;2023-07-29T13:28:31;0.77;;;0.60;;
20287;SDS011;10303;51.960;8.372;2023-07-29T13:30:57;0.60;;;0.60;;
20287;SDS011;10303;51.960;8.372;2023-07-29T13:33:23;0.80;;;0.80;;
20287;SDS011;10303;51.960;8.372;2023-07-29T13:35:49;0.70;;;0.70;;
20287;SDS011;10303;51.960;8.372;2023-07-29T13:38:15;2.17;;;0.80;;
20287;SDS011;10303;51.960;8.372;2023-07-29T13:40:41;0.80;;;0.50;;
20287;SDS011;10303;51.960;8.372;2023-07-29T13:43:08;0.60;;;0.60;;
20287;SDS011;10303;51.960;8.372;2023-07-29T13:45:34;0.60;;;0.60;;
20287;SDS011;10303;51.960;8.372;2023-07-29T13:48:01;0.93;;;0.70;;
20287;SDS011;10303;51.960;8.372;2023-07-29T13:50:27;0.77;;;0.77;;
20287;SDS011;10303;51.960;8.372;2023-07-29T13:52:53;0.75;;;0.70;;
20287;SDS011;10303;51.960;8.372;2023-07-29T13:55:19;0.70;;;0.70;;
20287;SDS011;10303;51.960;8.372;2023-07-29T13:57:45;0.60;;;0.60;;
20287;SDS011;10303;51.960;8.372;2023-07-29T14:00:11;2.42;;;1.00;;
20287;SDS011;10303;51.960;8.372;2023-07-29T14:02:38;0.70;;;0.70;;
20287;SDS011;10303;51.960;8.372;2023-07-29T14:05:04;0.57;;;0.57;;
20287;SDS011;10303;51.960;8.372;2023-07-29T14:07:32;0.52;;;0.52;;
20287;SDS011;10303;51.960;8.372;2023-07-29T14:09:58;0.93;;;0.60;;
20287;SDS011;10303;51.960;8.372;2023-07-29T14:12:25;1.92;;;0.70;;
20287;SDS011;10303;51.960;8.372;2023-07-29T14:14:51;0.70;;;0.70;;
20287;SDS011;10303;51.960;8.372;2023-07-29T14:17:17;0.73;;;0.70;;
20287;SDS011;10303;51.960;8.372;2023-07-29T14:19:43;0.68;;;0.68;;
20287;SDS011;10303;51.960;8.372;2023-07-29T14:22:08;0.80;;;0.80;;
20287;SDS011;10303;51.960;8.372;2023-07-29T14:24:35;0.70;;;0.70;;
20287;SDS011;10303;51.960;8.372;2023-07-29T14:27:00;1.45;;;1.02;;
20287;SDS011;10303;51.960;8.372;2023-07-29T14:29:28;3.25;;;1.90;;
20287;SDS011;10303;51.960;8.372;2023-07-29T14:31:55;1.17;;;1.17;;
20287;SDS011;10303;51.960;8.372;2023-07-29T14:34:21;1.80;;;1.70;;
20287;SDS011;10303;51.960;8.372;2023-07-29T14:36:48;1.80;;;1.70;;
20287;SDS011;10303;51.960;8.372;2023-07-29T14:39:14;2.75;;;1.70;;
20287;SDS011;10303;51.960;8.372;2023-07-29T14:41:41;1.50;;;1.40;;
20287;SDS011;10303;51.960;8.372;2023-07-29T14:44:07;2.38;;;1.40;;
20287;SDS011;10303;51.960;8.372;2023-07-29T14:46:34;1.60;;;1.50;;
20287;SDS011;10303;51.960;8.372;2023-07-29T14:49:00;1.50;;;1.40;;
20287;SDS011;10303;51.960;8.372;2023-07-29T14:51:26;1.92;;;1.75;;
20287;SDS011;10303;51.960;8.372;2023-07-29T14:53:53;1.90;;;1.80;;
20287;SDS011;10303;51.960;8.372;2023-07-29T14:56:19;2.40;;;1.08;;
20287;SDS011;10303;51.960;8.372;2023-07-29T14:58:46;1.55;;;1.45;;
20287;SDS011;10303;51.960;8.372;2023-07-29T15:01:14;1.42;;;1.33;;
20287;SDS011;10303;51.960;8.372;2023-07-29T15:03:42;1.60;;;1.50;;
20287;SDS011;10303;51.960;8.372;2023-07-29T15:06:08;1.65;;;1.05;;
20287;SDS011;10303;51.960;8.372;2023-07-29T15:08:35;1.55;;;1.45;;